Nearby METAR Reports

 

EGTE - Exeter Airport, United Kingdom
Distance from station: S 19km
Updated: 01/06/2020 19:20
NOT Current
Clear
Clear
 Wind from SSW
Wind: SSW 11 km/h
Temperature: 23°C
Dew Point: 12°C
Humidity: 50%
Barometer: 1020 hPa
Summary: Clear
Visibility: greater than 10 km
2020/06/01 18:20 EGTE 011820Z 21006KT CAVOK 23/12 Q1020
EGDY - Yeovilton (navy), United Kingdom
Distance from station: ENE 55km
Updated: 01/06/2020 23:20
Clear
Clear
 Wind from WSW
Wind: WSW 2 km/h
Temperature: 15°C
Dew Point: 9°C
Humidity: 68%
Barometer: 1021 hPa
Summary: Clear
Visibility: greater than 10 km
2020/06/01 22:20 EGDY 012220Z 24001KT CAVOK 15/09 Q1021 NOSIG RMK BLU BLU
 
EGFF - Cardiff-Wales Ar, United Kingdom
Distance from station: N 56km
Updated: 01/06/2020 23:20
Clear
Clear
 Wind from N
Wind: N 11 km/h
Temperature: 17°C
Dew Point: 9°C
Humidity: 59%
Barometer: 1022 hPa
Clouds: Clear
Visibility: 10 km
2020/06/01 22:20 EGFF 012220Z AUTO 35006KT 9999 NCD 17/09 Q1022
EGDX - St Athan Raf, United Kingdom
Distance from station: N 58km
Updated: 01/04/2019 13:50
NOT Current
Clear
Clear
 Wind from E
Wind: E 15 km/h
Temperature: 11°C
Dew Point: 5°C
Humidity: 67%
Barometer: 1019 hPa
Clouds: Clear
Visibility: 10 km
2019/04/01 12:50 EGDX 011250Z AUTO 10008KT 9999 NCD 11/05 Q1019
 
EGGD - Bristol/Lulsgate, United Kingdom
Distance from station: NE 71km
Updated: 01/06/2020 23:20
Clear
Clear
 Wind from NE
Wind: NE 15 km/h
Temperature: 18°C
Dew Point: 8°C
Humidity: 52%
Barometer: 1022 hPa
Clouds: Clear
Visibility: 10 km
2020/06/01 22:20 EGGD 012220Z AUTO 05008KT 9999 NCD 18/08 Q1022